SiktMolnbas
>≥ 10km≥ 10km ≥ 2000ft≥ 2000ft
< 10km< 10km < 2000ft< 2000ft
< 8km< 8km < 1500ft< 1500ft
< 5km< 5km < 1000ft< 1000ft
< 3km< 3km < 500ft< 500ft

Nytt 18 jan 2017:

Nytt 17 jan 2017:

ESNQ (20:50 UTC)

Kiruna flygplats

METAR

ESNQ 122050Z AUTO 31003KT 290V020 9999 BKN035/// OVC044/// M06/M10 Q1018=

TAF

Ingen TAF hittades.

ESNG (20:50 UTC)

Gällivare (Kavaheden), Lapland Airport

METAR

ESNG 122050Z AUTO 35004KT 290V070 9999 FEW130/// M01/M10 Q1018=

TAF

ESNG 121430Z 1215/1219 03008KT CAVOK=

ESPA (20:50 UTC)

Luleå Airport (Kallax)

METAR

ESPA 122050Z 02005KT 4600 -UP OVC006 00/M00 Q1017=

TAF

RA

ESPA AMD 121856Z 1218/1222 VRB02KT 7000 -RASN BKN020 BECMG 1219/1221 02012KT TEMPO 1218/1222 1500 RASN OVC007=

ESNL (20:50 UTC)

Lycksele flygplats

METAR

SN

ESNL 122050Z AUTO 34009KT 6000 -SN FEW009/// SCT013/// BKN016/// M01/M02 Q1015=

TAF

Ingen TAF hittades.

ESNU (20:50 UTC)

Umeå City Airport

METAR

DZ

ESNU 122050Z 03009KT 350V060 4200 -DZ OVC006 01/00 Q1013=

TAF

RA

ESNU 122030Z 1221/1306 03014KT 9000 -DZ OVC008 TEMPO 1221/1306 2000 RASN BKN012=

ESNO (20:50 UTC)

Örnsköldsvik flygplats

METAR

ESNO 122050Z AUTO 03007KT 350V080 6000 OVC004/// 00/00 Q1012=

TAF

RA

ESNO AMD 121518Z 1215/1219 03010G20KT 8000 -RASN BKN008 TEMPO 1215/1219 1400 SNRA VV015=

ESNK (20:50 UTC)

Kramfors-Sollefteå flygplats

METAR

DZ

ESNK 122050Z AUTO 33008KT 5000 DZ VV023 01/01 Q1012=

TAF

Ingen TAF hittades.

ESNN (20:50 UTC)

Sundsvall-Härnösands flygplats (Midlanda)

METAR

DZ

ESNN 122050Z AUTO 30003KT 6000 DZ VV023 00/M00 Q1013 REDZ=

TAF

RA

ESNN AMD 121607Z 1216/1218 02010G22KT 9999 OVC010 TEMPO 1216/1218 4000 -RASN BKN007=

ESNS (20:50 UTC)

Skellefteå flygplats

METAR

SN

ESNS 122050Z AUTO 02010KT 340V040 1200 R10/P2000N R28/P2000N -SN OVC004/// 00/M00 Q1015=

TAF

Ingen TAF hittades.

ESGT (20:50 UTC)

Trollhättan-Vänersborgs flygplats (Malöga flygplats)

METAR

ESGT 122050Z AUTO 18009KT 9999 FEW027/// 01/M01 Q1016=

TAF

Ingen TAF hittades.

ESGG (20:50 UTC)

Göteborg-Landvetter flygplats

METAR

ESGG 122050Z 21013KT 9999 FEW013 SCT020 01/M01 Q1016 RWY 21 DAMP 51-100 PCT BA GOOD=

TAF

SHSNCB

ESGG 121730Z 1218/1318 23013KT 9999 FEW015 BKN030 TEMPO 1218/1310 2000 SHSN BKN008 BKN020CB BECMG 1303/1305 29007KT=

ESMT (20:50 UTC)

Halmstads flygplats

METAR

ESMT 122050Z AUTO 27009KT 9999 FEW024/// SCT034/// BKN066/// 03/M00 Q1019=

TAF

CB

ESMT 121415Z 1215/1219 25015KT 9999 BKN030 TEMPO 1215/1219 SCT015CB=

ESTA (20:50 UTC)

Ängelholm-Helsingborg flygplats

METAR

ESTA 122050Z AUTO 20009KT 9999 FEW031/// SCT053/// 04/M01 Q1020=

TAF

CB

ESTA 121415Z 1215/1218 25013KT 9999 SCT035 TEMPO 1215/1218 BKN020CB=

ESTL (20:50 UTC)

Ljungbyheds flygplats

METAR

ESTL 122050Z AUTO 23008KT 9999 NCD 03/M02 Q1021=

TAF

Ingen TAF hittades.

ESMS (20:50 UTC)

Malmö Airport

METAR

ESMS 122050Z 24010KT CAVOK 03/M02 Q1021=

TAF

CB

ESMS 121707Z 1218/1318 25008KT 9999 SCT030 TEMPO 1218/1220 BKN015CB PROB40 1305/1308 BKN012 TEMPO 1312/1318 BKN020CB=

ESMK (20:50 UTC)

Kristianstad Airport

METAR

ESMK 122050Z AUTO 19005KT 9999 NCD M01/M01 Q1021=

TAF

Ingen TAF hittades.

ESDF (20:50 UTC)

Ronneby flygplats

METAR

ESDF 122050Z AUTO 24006KT 210V270 9999 NCD 03/M01 Q1021=

TAF

Ingen TAF hittades.

ESMQ (20:50 UTC)

Kalmar Airport

METAR

ESMQ 122050Z AUTO 20004KT 9999 R16///// R34/P1500N NCD 03/M03 Q1020=

TAF

ESMQ 121430Z 1215/1218 26011KT 9999 SCT040=

ESMX (20:50 UTC)

Växjö, Smaland Airport

METAR

ESMX 122050Z AUTO 20007KT 9999 NCD 01/M02 Q1019=

TAF

Ingen TAF hittades.

ESGJ (20:50 UTC)

Jönköping Airport

METAR

ESGJ 122050Z 18005KT CAVOK 00/M01 Q1016=

TAF

ESGJ 122030Z 1221/1301 23009KT 9999 FEW040 PROB40 1221/1301 BKN008=

ESSA (20:50 UTC)

Stockholm-Arlanda flygplats

METAR

ESSA 122050Z 25006KT 9999 FEW041 SCT055 BKN120 03/01 Q1015 RWY 88 CLEAR AND DRY 51-100 PCT BA GOOD NOSIG=

TAF

SHRACB

ESSA 121730Z 1218/1318 24008KT 9999 SCT030 PROB40 1314/1318 SHRA BKN030CB=

ESKN (20:50 UTC)

Stockholm-Skavsta flygplats

METAR

ESKN 122050Z 25009KT CAVOK 03/M01 Q1016=

TAF

SHRACB

ESKN 121730Z 1218/1318 27012KT 9999 SCT030 BECMG 1301/1303 20008KT TEMPO 1312/1316 SHRA BKN030CB=

ESSP (20:50 UTC)

Norrköping flygplats

METAR

ESSP 122050Z AUTO 23009KT 9999 FEW068/// 04/M01 Q1017=

TAF

Ingen TAF hittades.

ESSL (20:50 UTC)

Linköping - SAAB Flygplats

METAR

ESSL 122050Z AUTO 22005KT 9999 FEW170/// 02/M01 Q1017=

TAF

Ingen TAF hittades.

ESSV (20:50 UTC)

Visby flygplats

METAR

ESSV 122050Z AUTO 24009KT 9999 BKN061/// BKN092/// OVC120/// 05/M00 Q1018=

TAF

ESSV 121730Z 1218/1220 24008KT CAVOK=

ESOW (20:50 UTC)

Stockholm-Västerås flygplats

METAR

ESOW 122050Z AUTO 17003KT 9999 SCT033/// 03/01 Q1016=

TAF

Ingen TAF hittades.

ESOE (20:50 UTC)

Örebro flygplats

METAR

ESOE 122050Z AUTO 21008KT 9999 FEW180/// 03/M00 Q1015=

TAF

SHRACB

ESOE 121730Z 1218/1222 22010KT 9999 SCT040 PROB40 1219/1222 SHRA BKN030CB=

ESOK (20:50 UTC)

Karlstad Airport

METAR

ESOK 122050Z 20005KT CAVOK 01/01 Q1014=

TAF

SHRACB

ESOK 121730Z 1218/1220 20010KT 9999 BKN030 PROB40 1218/1220 SHRA BKN009 BKN020CB=

ESSD (20:50 UTC)

Borlänge, Dala Airport

METAR

ESSD 122050Z AUTO 22004KT 9999 BKN040/// OVC066/// 02/01 Q1013=

TAF

Ingen TAF hittades.

ESGR (20:50 UTC)

Skövde flygplats

METAR

ESGR 122050Z AUTO 17005KT 9999 SCT042/// M01/M02 Q1016=

TAF

Ingen TAF hittades.

ESIB (20:50 UTC)

Såtenäs

METAR

ESIB 122050Z AUTO 18008KT 9999 NCD 01/01 Q1015=

TAF

Ingen TAF hittades.

ESNV (20:50 UTC)

Vilhelmina flygplats

METAR

SN

ESNV 122050Z AUTO 03005KT 360V060 9999 -SN OVC051/// M00/M05 Q1015=

TAF

Ingen TAF hittades.

ESST (20:50 UTC)

Torsby flygplats (Fryklanda)

METAR

DZ

ESST 122050Z AUTO 16004KT 130V190 9999 -DZ BKN013/// OVC022/// 02/01 Q1013 RESHUP=

TAF

Ingen TAF hittades.

ESUT (20:50 UTC)

Hemavans flygplats

METAR

ESUT 122050Z AUTO 29004KT 230V310 9999 BKN047/// OVC110/// M04/M09 Q1017=

TAF

Ingen TAF hittades.

ESNX (20:50 UTC)

Arvidsjaur flygplats

METAR

ESNX 122050Z AUTO /////KT 9999 OVC053/// ///// Q1015=

TAF

SN

ESNX 121430Z 1215/1219 05007KT CAVOK PROB40 1215/1219 3000 SN VV012=

ESIA (20:50 UTC)

Karlsborg

METAR

ESIA 122050Z AUTO 21007KT 9999 NCD 02/M01 Q1016=

TAF

Ingen TAF hittades.

ESUP (20:50 UTC)

Pajala

METAR

ESUP 122050Z AUTO 02006KT 9999 NCD M01/M08 Q1019=

TAF

Ingen TAF hittades.

ESPE (20:50 UTC)

Vidsel

METAR

ESPE 122050Z AUTO 07005KT 9999 BKN032/// 02/M06 Q1017=

TAF

Ingen TAF hittades.

ESCM (20:50 UTC)

Uppsala

METAR

ESCM 122050Z AUTO 22006KT 9999 BKN062/// 04/01 Q1015=

TAF

Ingen TAF hittades.

ESKM (20:50 UTC)

Mora/Siljan

METAR

SN

ESKM 122050Z AUTO 33003KT 9999 R16/P2000N R34///// -SN SCT016/// BKN022/// OVC032/// 00/00 Q1013=

TAF

Ingen TAF hittades.

EKRN (20:50 UTC)

Bornholm Airport

METAR

EKRN 122050Z AUTO 25011KT 9999 NCD 05/01 Q1023=

TAF

EKRN 121425Z 1215/1219 26012KT 9999 SCT030=

EFIV (20:50 UTC)

Ivalo Airport

METAR

EFIV 122050Z AUTO VRB01KT CAVOK M03/M09 Q1020=

TAF

Ingen TAF hittades.

EFKT (20:50 UTC)

Kittilä Airport

METAR

EFKT 122050Z AUTO 02006KT CAVOK M02/M09 Q1019=

TAF

EFKT 121431Z 1215/1219 30006KT 9999 FEW045=

EFRO (20:50 UTC)

Rovaniemi Airport

METAR

SN

EFRO 122050Z AUTO 05009KT 5000 -SN SCT003 OVC029 M00/M01 Q1017=

TAF

SNBR

EFRO AMD 122058Z 1221/1321 10010KT 3000 -SN BKN025 TEMPO 1221/1224 BKN003 BECMG 1300/1302 BKN008 TEMPO 1302/1307 0800 SN BECMG 1307/1309 36010KT 8000 BKN015 BECMG 1315/1317 3000 BR OVC002=

EFKE (20:50 UTC)

Kemi-Tornio Airport

METAR

SN

EFKE 122050Z AUTO 03010KT 5000 -SN BKN004 OVC023 00/00 Q1016=

TAF

Ingen TAF hittades.

EFKS (20:50 UTC)

Kuusamo Airport

METAR

SN

EFKS 122050Z AUTO 07006KT 030V110 5000 -SN OVC006 M01/M01 Q1016=

TAF

SN

EFKS 121738Z 1218/1221 06006KT 2000 SN BKN005 TEMPO 1218/1221 4000 BKN004=

EFOU (20:50 UTC)

Oulu Airport

METAR

RA

EFOU 122050Z AUTO 05007KT 9999 -RA SCT004 BKN016 BKN029 01/01 Q1013=

TAF

BR

EFOU 122031Z 1221/1321 06008KT 9999 BKN040 TEMPO 1221/1302 4000 SNRA BKN005 BECMG 1302/1304 2000 BR OVC002 BECMG 1310/1312 21010KT BKN025=

EFKI (20:50 UTC)

Kajaani Airport

METAR

RA

EFKI 122050Z AUTO 16006KT 9999 -RA OVC049 06/04 Q1014=

TAF

Ingen TAF hittades.

EFKK (20:50 UTC)

Kokkola-Pietarsaari/Kruunupyy Airport

METAR

SHRA

EFKK 122050Z AUTO VRB02KT 7000 SHRA SCT001 SCT010 BKN023 //////CB 02/02 Q1012=

TAF

Ingen TAF hittades.

EFVA (20:50 UTC)

Vaasa Airport

METAR

EFVA 122050Z AUTO 20008KT 8000 OVC005 04/04 Q1012=

TAF

DZFG

EFVA 122029Z 1221/1321 19007KT 8000 OVC005 TEMPO 1221/1301 4000 -DZRA OVC003 PROB30 TEMPO 1221/1224 0800 FG TEMPO 1308/1312 21015G25KT BKN015=

EFKU (20:50 UTC)

Kuopio Airport

METAR

EFKU 122050Z AUTO 17009KT CAVOK 07/M01 Q1015=

TAF

RA

EFKU 122031Z 1221/1321 17010KT CAVOK BECMG 1303/1305 BKN002 TEMPO 1305/1307 6000 -RADZ BECMG 1307/1309 23008KT BKN020=

EFJY (20:50 UTC)

Jyväskylä Airport

METAR

EFJY 122050Z AUTO 15004KT CAVOK 05/02 Q1014=

TAF

DZBR

EFJY 122029Z 1221/1321 16005KT CAVOK BECMG 1223/1301 5000 -DZ BKN005 TEMPO 1301/1304 1200 BR BKN003 BECMG 1305/1307 9999 SCT013=

EFTP (20:50 UTC)

Tampere-Pirkkala Airport

METAR

EFTP 122050Z AUTO 21008KT 150V240 9999 SCT015 BKN032 OVC037 08/06 Q1014=

TAF

RA

EFTP 122029Z 1221/1321 17007KT 9999 -RA OVC035 BECMG 1221/1223 2000 -DZRA BKN003 BECMG 1300/1302 9999 BKN012 BECMG 1303/1305 CAVOK=

EFPO (20:50 UTC)

Pori Airport

METAR

EFPO 122050Z AUTO 22007KT 180V260 9999 OVC005 04/03 Q1014=

TAF

EFPO 121422Z 1215/1218 16014KT CAVOK=

EFTU (20:50 UTC)

Turku Airport

METAR

SHRA

EFTU 122050Z AUTO 24005KT 7000 -SHRA BKN002 OVC046 //////CB 04/04 Q1015=

TAF

RACB

EFTU 122027Z 1221/1321 23006KT 9999 -RA OVC002 TEMPO 1221/1223 3000 -RADZ BKN006 SCT030CB BECMG 1223/1301 BKN030=

EFHK (20:50 UTC)

Helsinki-Vantaa Airport

METAR

EFHK 122050Z VRB02KT CAVOK 08/02 Q1015 NOSIG=

TAF

RABRCB

EFHK 122027Z 1221/1321 14005KT CAVOK TEMPO 1223/1304 2000 -RA BR BKN004 SCT030CB BKN035=

EFMA (20:50 UTC)

Mariehamn Airport

METAR

EFMA 122050Z AUTO 20006KT CAVOK 03/02 Q1016=

TAF

EFMA 122027Z 1221/1306 20004KT CAVOK=

EKSB (20:50 UTC)

Sønderborg Airport

METAR

RA

EKSB 122050Z AUTO 23008KT 190V260 9999NDV -RA BKN012/// 03/01 Q1022=

TAF

Ingen TAF hittades.

EKSP (20:50 UTC)

Vojens Airport

METAR

TCU

EKSP 122050Z 24010KT 9999 FEW016TCU BKN025 02/01 Q1021=

TAF

SHRACBTCU

EKSP 122005Z 1221/1321 24010KT 9999 SCT020 TEMPO 1221/1223 2000 -SHRAGS SCT020CB BECMG 1307/1310 29018G28KT PROB40 1308/1315 7000 -SHRAGS SCT015TCU BECMG 1315/1318 30012KT=

EKEB (20:50 UTC)

Esbjerg Airport

METAR

EKEB 122050Z AUTO 25013KT 9999 FEW021/// BKN032/// 03/01 Q1021=

TAF

SHRASNCB

EKEB AMD 121854Z 1218/1221 25015KT 9999 SCT030 TEMPO 1218/1221 4000 SHRASNGS BKN014CB=

EKYT (20:50 UTC)

Aalborg Airport

METAR

EKYT 122050Z AUTO 20010KT 9999 NCD 02/00 Q1017=

TAF

SHRACBTCU

EKYT 122005Z 1221/1321 22015KT 9999 SCT030 TEMPO 1221/1224 3000 -SHRAGSSN BKN012 SCT015CB BECMG 1300/1303 24005KT BECMG 1306/1309 30015KT PROB40 1309/1315 7000 -SHRAGSSN SCT015TCU BECMG 1318/1321 31005KT=

EKKA (20:59 UTC)

Karup Airport

METAR

SHRASNCB

EKKA 122059Z 31006KT 3000 -SHRASN FEW008 BKN015CB 01/00 Q1019 BECMG 9999 NSW SCT020=

TAF

SHRACBTCU

EKKA 122005Z 1221/1321 24012KT 9999 SCT020 TEMPO 1221/1222 3000 -SHRAGSSN BKN012 SCT015CB BECMG 1306/1309 30015KT PROB40 1308/1315 7000 -SHRAGS SCT015TCU BECMG 1318/1321 29005KT=

EKBI (20:50 UTC)

Billund Airport

METAR

SHRA

EKBI 122050Z AUTO 23008KT 9999 -SHRA BKN017/// 02/01 Q1020=

TAF

SHRASNCB

EKBI AMD 121954Z 1219/1318 24010KT 9999 SCT030 TEMPO 1219/1221 SHRASNGS BKN012 BKN015CB BECMG 1309/1312 30015KT TEMPO 1309/1312 FEW020CB TEMPO 1312/1316 30015G25KT FEW020CB=

EKVD (20:50 UTC)

Kolding Airport

METAR

EKVD 122050Z AUTO 22010KT //// ///////// 02/01 Q1021=

TAF

Ingen TAF hittades.

EKCH (20:50 UTC)

Copenhagen Airport, Kastrup

METAR

EKCH 122050Z AUTO 23010KT 9999 NCD 03/M01 Q1022 NOSIG=

TAF

CB

EKCH 121707Z 1218/1318 24012KT 9999 SCT030 TEMPO 1218/1220 SCT020CB TEMPO 1310/1318 BKN020CB=

EKRK (20:50 UTC)

Copenhagen Airport, Roskilde

METAR

EKRK 122050Z AUTO 22007KT 9999 NCD 01/M02 Q1021=

TAF

EKRK 122001Z 1221/1306 23010KT 9999 FEW020=

ENRY (20:50 UTC)

Moss flygplats, Rygge

METAR

DZ

ENRY 122050Z AUTO 32002KT 9999NDV DZ BKN010/// BKN016/// OVC027/// 02/01 Q1014 REUP=

TAF

SHRACB

ENRY 121700Z 1218/1318 34008KT 9999 -SHRA SCT008 BKN020 TEMPO 1218/1303 2000 SHSNRA BKN008 FEW020CB=

ENGM (20:50 UTC)

Oslo flygplats, Gardermoen

METAR

SNBR

ENGM 122050Z 35011KT 5000 2200NE -SN BR FEW006 BKN018 00/M01 Q1013 TEMPO 2500 -SN BR SCT006 BKN012=

TAF

SHSNBRCB

ENGM 121700Z 1218/1318 36008KT 9000 -SNRA BKN020 TEMPO 1218/1303 1400 -SHSN BR BKN008 FEW020CB=

ENCN (20:50 UTC)

Kristiansand flygplats, Kjevik

METAR

ENCN 122050Z AUTO 05003KT 9999 NCD 01/M00 Q1015=

TAF

SHRACBTCU

ENCN AMD 121750Z 1217/1219 05008KT 9999 -SHRA FEW025TCU BKN040 TEMPO 1217/1219 3000 SHRAGS FEW025CB BKN030=

ENZV (20:50 UTC)

Stavanger-Sola flygplats

METAR

ENZV 122050Z 34007KT CAVOK 05/M02 Q1017=

TAF

SHSNCB

ENZV 121700Z 1218/1318 34008KT 9999 FEW020 SCT050 TEMPO 1218/1222 FEW020CB PROB40 TEMPO 1308/1316 34015G25KT 3000 SHSNRA BKN012CB=

ENHD (20:50 UTC)

Haugesund flygplats, Karmøy

METAR

ENHD 122050Z AUTO 35016KT 9999 NCD 06/M02 Q1017=

TAF

CB

ENHD 121700Z 1218/1220 34012KT 9999 FEW030CB SCT080=

ENBR (20:50 UTC)

Bergen flygplats, Flesland

METAR

ENBR 122050Z 35007KT 9999 FEW053 04/M05 Q1018 RMK WIND 1200FT 35012KT=

TAF

SHSNCB

ENBR 121700Z 1218/1318 01008KT 9999 FEW050 PROB40 TEMPO 1308/1316 34015G25KT 2000 SHSN BKN008CB=

ENBL (20:50 UTC)

Førde flygplats, Bringeland

METAR

ENBL 122050Z 35009KT 9999 FEW045 SCT140 02/M06 Q1019=

TAF

Ingen TAF hittades.

ENML (20:50 UTC)

Molde flygplats, Årø

METAR

SHSN

ENML 122050Z 02006KT 6000 -SHSN VV010 01/M01 Q1022=

TAF

SHSNCBTCU

ENML AMD 121821Z 1218/1220 01005KT 9999 FEW020TCU BKN050 PROB30 TEMPO 1218/1220 2500 SHSN BKN009 SCT020CB=

ENKB (20:50 UTC)

Kristiansund flygplats, Kvernberget

METAR

RA

ENKB 122050Z AUTO 34007KT 270V050 9999 -RASN FEW002/// SCT009/// BKN012/// 01/M00 Q1021 REUP RMK WIND 745FT 04023KT=

TAF

SHSNCBTCU

ENKB 121400Z 1215/1220 03012KT 9999 FEW012TCU SCT025 PROB40 TEMPO 1215/1220 3000 SHSNRA BKN014CB=

ENRO (20:50 UTC)

Røros flygplats

METAR

SN

ENRO 122050Z AUTO 34008KT 9999NDV -SN FEW020/// BKN034/// OVC058/// M03/M07 Q1014=

TAF

SN

ENRO 121100Z 1212/1218 35012KT 7000 -SN SCT008 BKN018 TEMPO 1212/1218 36015G25KT 1400 SN BLSN VV008=

ENVA (20:50 UTC)

Trondheim flygplats, Værnes

METAR

ENVA 122050Z 35006KT 9999 SCT048 BKN057 03/M04 Q1019 RMK WIND 670FT 35013KT=

TAF

SHSN

ENVA 121700Z 1218/1318 01008KT 9999 FEW050 BKN080 PROB40 TEMPO 1300/1318 2500 SHSN VV012 BECMG 1307/1310 31012KT=

ENOL (20:50 UTC)

Ørland flygplats

METAR

SHRA

ENOL 122050Z 04008KT 9999 VCSH FEW030 BKN055 03/M02 Q1020 NOSIG=

TAF

SHSN

ENOL 121700Z 1218/1318 01015KT 9999 SCT030 BKN050 TEMPO 1300/1318 35015G25KT 2000 SHSN VV012=

ENRM (20:20 UTC)

Rørvik flygplats, Ryum

METAR

ENRM 122020Z 02009KT 9999 FEW030 BKN047 03/M03 Q1020=

TAF

ENRM 121700Z 1218/1221 03012KT 9999 FEW025 BKN060=

ENBN (20:50 UTC)

Brønnøysund flygplats, Brønnøy

METAR

ENBN 122050Z 03008KT 9999 FEW040 BKN050 02/M05 Q1020=

TAF

ENBN 122000Z 1221/1306 01010KT 9999 FEW040 SCT050=

ENRA (20:50 UTC)

Mo i Rana flygplats, Røssvoll

METAR

ENRA 122050Z VRB02KT 9999 FEW050 M03/M07 Q1021=

TAF

ENRA 121700Z 1218/1221 VRB05KT 9999 FEW030 SCT050=

ENBO (20:50 UTC)

Bodö flygplats

METAR

ENBO 122050Z 36005KT 9999 FEW030 M01/M06 Q1022 NOSIG=

TAF

ENBO 121700Z 1218/1318 02006KT 9999 SCT030 TEMPO 1300/1306 10010KT=

ENAN (20:50 UTC)

Andøya flygplats

METAR

ENAN 122050Z AUTO 19007KT 9999 FEW064/// M03/M05 Q1021=

TAF

SHSNTCU

ENAN AMD 122032Z 1220/1318 20008KT 9999 FEW018TCU SCT030 PROB40 TEMPO 1220/1307 1500 SHSN VV012 BECMG 1304/1307 26012KT=

ENEV (20:50 UTC)

Harstad-Narvik flygplats

METAR

ENEV 122050Z AUTO 00000KT 9999 BKN059/// M01/M05 Q1021 RMK WIND 1400FT 26003KT=

TAF

ENEV 121400Z 1215/1219 33005KT 9999 FEW030 SCT040=

ENDU (20:50 UTC)

Bardufoss flygplats

METAR

ENDU 122050Z 28003KT 9999 FEW040 BKN060 M03/M05 Q1021 RMK WIND 1100FT 28005KT WIND 2200FT VRB02KT=

TAF

SHSN

ENDU 121700Z 1218/1318 32008KT 9999 FEW035 SCT045 PROB30 TEMPO 1306/1309 2000 SHSN VV009=

ENTC (20:50 UTC)

Tromsø flygplats

METAR

ENTC 122050Z 20009KT 9999 FEW019 BKN064 M00/M04 Q1021 NOSIG RMK WIND 2600FT 19009KT=

TAF

SHSN

ENTC 121700Z 1218/1318 23009KT 9999 FEW015 PROB40 1218/1312 2000 SHSN VV008=

ENAT (20:50 UTC)

Alta flygplats

METAR

ENAT 122050Z AUTO 20007KT 9999 NCD M03/M08 Q1021 RMK WIND 700FT 19012KT=

TAF

Ingen TAF hittades.

ENNA (20:50 UTC)

Lakselv flygplats

METAR

ENNA 122050Z AUTO 16005KT 120V180 9999 FEW040/// BKN061/// M03/M08 Q1020 RMK WIND 1800FT 26021KT=

TAF

ENNA 121700Z 1218/1318 25012KT 9999 SCT035 TEMPO 1218/1224 VRB03KT BECMG 1222/1224 18008KT=

ENHF (20:50 UTC)

Hammerfest flygplats

METAR

SHRA

ENHF 122050Z 24014KT 9999 VCSH FEW014 SCT025 M01/M03 Q1018 RMK WIND 1254FT 24016KT=

TAF

SHSNCB

ENHF 122000Z 1221/1306 23012KT 9999 FEW015CB SCT020 TEMPO 1221/1306 0500 SHSN VV006=

ENKR (20:50 UTC)

Kirkenes Airport, Høybuktmoen

METAR

ENKR 122050Z 24004KT CAVOK M03/M08 Q1020 RMK WIND 731FT 25010KT=

TAF

ENKR 122000Z 1221/1306 24010KT CAVOK=

ENST (20:50 UTC)

Sandnessjøen Airport, Stokka

METAR

ENST 122050Z 02010KT 9999 FEW035 SCT050 02/M04 Q1021 RMK WIND 300FT 02009KT=

TAF

Ingen TAF hittades.

ENSB (20:50 UTC)

Svalbard Airport, Longyear

METAR

ENSB 122050Z 13008KT 9999 SCT037 M12/M18 Q1014 RMK WIND 1400FT 12007KT=

TAF

ENSB 121700Z 1218/1318 35010KT 9999 SCT035 BECMG 1218/1221 12008KT BECMG 1308/1310 12018KT=